Terminal Aerodrome Forecast
Issued by NWS Cleveland, OH

Current Version | Previous Version | Text Only | Print | Product List | Glossary On
Versions: 1 2 3 4 5 6 7 8 9 10 11 12 13 14 15 16 17 18 19 20 21 22
000
FTUS41 KCLE 242300
TAFYNG
TAF
KYNG 242334Z 2500/2524 20025G45KT 6SM BR VCTS SCT010 OVC035CB
      TEMPO 2500/2503 2SM TSRA BR BKN012CB OVC018
     FM250400 20020G35KT 4SM TSRA BR OVC015CB
     FM250600 22018G32KT 4SM -SHRA OVC012
     FM251000 24025G32KT 3SM -SHSN OVC018
     FM251500 25012G25KT 5SM -SHSN BR OVC015=

USA.gov is the U.S. government's official web portal to all federal, state and local government web resources and services.